createdAt,value
2022-11-01T00:02:49.340Z,100342.50
2022-11-01T00:07:54.070Z,100329.34
2022-11-01T00:12:55.851Z,100331.31
2022-11-01T00:17:57.745Z,100324.44
2022-11-01T00:22:59.918Z,100332.03
2022-11-01T00:28:02.201Z,100333.22
2022-11-01T00:33:04.655Z,100328.94
2022-11-01T00:38:06.637Z,100328.94
2022-11-01T00:43:09.031Z,100324.97
2022-11-01T00:48:11.647Z,100321.34
2022-11-01T00:53:13.617Z,100319.31
2022-11-01T00:58:15.626Z,100319.75
2022-11-01T01:03:17.546Z,100323.59
2022-11-01T01:08:19.883Z,100335.78
2022-11-01T01:13:22.263Z,100332.63
2022-11-01T01:18:24.128Z,100334.41
2022-11-01T01:23:26.195Z,100322.41
2022-11-01T01:28:28.164Z,100322.31
2022-11-01T01:33:30.482Z,100322.94
2022-11-01T01:38:33.145Z,100328.81
2022-11-01T01:43:42.743Z,100325.84
2022-11-01T01:48:48.741Z,100321.50
2022-11-01T01:53:55.788Z,100316.94
2022-11-01T01:59:11.092Z,100315.03
2022-11-01T02:04:23.470Z,100320.34
2022-11-01T02:09:28.154Z,100319.94
2022-11-01T02:14:33.138Z,100321.22
2022-11-01T02:20:09.304Z,100313.88
2022-11-01T02:25:35.551Z,100315.59
2022-11-01T02:30:52.457Z,100324.78
2022-11-01T02:36:12.039Z,100327.06
2022-11-01T02:41:23.647Z,100336.22
2022-11-01T02:46:46.659Z,100340.50
2022-11-01T02:51:50.496Z,100331.09
2022-11-01T02:56:52.769Z,100337.41
2022-11-01T03:02:02.334Z,100339.19
2022-11-01T03:07:09.553Z,100335.13
2022-11-01T03:12:25.984Z,100326.38
2022-11-01T03:17:47.088Z,100349.78
2022-11-01T03:22:58.561Z,100339.41
2022-11-01T03:28:06.682Z,100356.94
2022-11-01T03:33:11.739Z,100347.84
2022-11-01T03:38:17.507Z,100359.84
2022-11-01T03:43:23.211Z,100366.56
2022-11-01T03:48:25.552Z,100380.47
2022-11-01T03:53:27.330Z,100391.69
2022-11-01T03:58:45.329Z,100402.28
2022-11-01T04:03:47.292Z,100421.72
2022-11-01T04:08:49.187Z,100432.31
2022-11-01T04:13:51.015Z,100441.59
2022-11-01T04:19:10.992Z,100444.06
2022-11-01T04:24:21.318Z,100455.41
2022-11-01T04:29:23.342Z,100463.19
2022-11-01T04:34:43.538Z,100473.25
2022-11-01T04:39:45.493Z,100495.47
2022-11-01T04:44:48.366Z,100512.59
2022-11-01T04:49:50.404Z,100516.75
2022-11-01T04:54:52.357Z,100533.22
2022-11-01T04:59:56.228Z,100550.44
2022-11-01T05:04:58.047Z,100551.81
2022-11-01T05:10:00.353Z,100574.16
2022-11-01T05:15:02.098Z,100586.44
2022-11-01T05:20:04.171Z,100589.53
2022-11-01T05:25:09.618Z,100607.50
2022-11-01T05:30:12.053Z,100619.38
2022-11-01T05:35:13.850Z,100631.53
2022-11-01T05:40:15.773Z,100652.41
2022-11-01T05:45:17.861Z,100656.50
2022-11-01T05:50:19.811Z,100662.25
2022-11-01T05:55:21.543Z,100673.97
2022-11-01T06:00:23.365Z,100664.53
2022-11-01T06:05:25.972Z,100682.56
2022-11-01T06:10:28.034Z,100694.19
2022-11-01T06:15:33.100Z,100699.81
2022-11-01T06:20:38.472Z,100721.41
2022-11-01T06:25:40.319Z,100738.69
2022-11-01T06:30:44.137Z,100746.41
2022-11-01T06:35:46.000Z,100758.25
2022-11-01T06:40:48.366Z,100764.38
2022-11-01T06:45:50.142Z,100776.31
2022-11-01T06:50:54.134Z,100779.72
2022-11-01T06:55:59.318Z,100784.31
2022-11-01T07:01:02.967Z,100795.88
2022-11-01T07:06:04.977Z,100807.63
2022-11-01T07:11:07.010Z,100822.03
2022-11-01T07:16:08.878Z,100825.69
2022-11-01T07:21:10.665Z,100835.75
2022-11-01T07:26:12.451Z,100845.91
2022-11-01T07:31:14.199Z,100850.66
2022-11-01T07:36:16.125Z,100853.63
2022-11-01T07:41:17.979Z,100871.41
2022-11-01T07:46:19.862Z,100868.31
2022-11-01T07:51:21.541Z,100879.50
2022-11-01T07:56:23.396Z,100871.28
2022-11-01T08:01:25.290Z,100881.22
2022-11-01T08:06:27.243Z,100883.84
2022-11-01T08:11:29.090Z,100896.06
2022-11-01T08:16:30.777Z,100889.78
2022-11-01T08:21:32.629Z,100901.38
2022-11-01T08:26:34.343Z,100901.44
2022-11-01T08:31:41.329Z,100909.66
2022-11-01T08:36:43.105Z,100903.47
2022-11-01T08:41:48.458Z,100922.06
2022-11-01T08:46:54.555Z,100927.31
2022-11-01T08:51:56.294Z,100934.56
2022-11-01T08:56:58.197Z,100946.88
2022-11-01T09:02:00.049Z,100944.97
2022-11-01T09:07:01.982Z,100955.88
2022-11-01T09:12:10.958Z,100963.50
2022-11-01T09:17:15.905Z,100970.75
2022-11-01T09:22:17.802Z,100977.72
2022-11-01T09:27:19.592Z,100988.03
2022-11-01T09:32:21.366Z,100987.16
2022-11-01T09:37:23.682Z,100980.09
2022-11-01T09:42:37.167Z,100988.09
2022-11-01T09:47:46.214Z,100994.22
2022-11-01T09:52:49.514Z,101004.75
2022-11-01T09:58:00.911Z,101003.97
2022-11-01T10:03:33.815Z,101004.91
2022-11-01T10:08:56.151Z,101004.81
2022-11-01T10:14:19.159Z,101015.72
2022-11-01T10:19:24.308Z,101017.13
2022-11-01T10:24:44.464Z,101030.88
2022-11-01T10:30:09.934Z,101032.50
2022-11-01T10:35:16.411Z,101026.50
2022-11-01T10:40:27.361Z,101040.25
2022-11-01T10:45:31.006Z,101035.94
2022-11-01T10:50:33.532Z,101041.94
2022-11-01T10:55:57.036Z,101048.25
2022-11-01T11:01:01.523Z,101053.91
2022-11-01T11:06:06.693Z,101046.75
2022-11-01T11:11:14.626Z,101050.94
2022-11-01T11:16:30.396Z,101042.91
2022-11-01T11:21:34.740Z,101022.69
2022-11-01T11:26:39.491Z,101034.53
2022-11-01T11:31:41.960Z,101033.16
2022-11-01T11:36:49.840Z,101040.63
2022-11-01T11:41:51.639Z,101031.34
2022-11-01T11:46:59.242Z,101022.47
2022-11-01T11:52:00.990Z,101019.72
2022-11-01T11:57:21.976Z,101019.88
2022-11-01T12:02:30.645Z,101023.25
2022-11-01T12:07:53.192Z,101017.13
2022-11-01T12:12:57.190Z,101024.69
2022-11-01T12:18:15.787Z,101009.31
2022-11-01T12:23:33.035Z,101021.16
2022-11-01T12:28:39.718Z,101014.16
2022-11-01T12:33:48.598Z,101008.81
2022-11-01T12:38:55.509Z,101013.69
2022-11-01T12:43:57.474Z,101009.97
2022-11-01T12:49:14.564Z,101010.09
2022-11-01T12:54:29.246Z,101008.34
2022-11-01T12:59:36.502Z,100991.66
2022-11-01T13:04:47.773Z,100986.97
2022-11-01T13:10:28.339Z,100985.25
2022-11-01T13:15:40.027Z,100981.63
2022-11-01T13:21:10.824Z,100984.50
2022-11-01T13:26:24.719Z,100980.56
2022-11-01T13:31:47.122Z,100985.16
2022-11-01T13:37:14.111Z,100988.88
2022-11-01T13:42:17.636Z,100980.09
2022-11-01T13:47:48.445Z,100980.47
2022-11-01T13:53:03.267Z,100976.09
2022-11-01T13:58:06.928Z,100978.94
2022-11-01T14:03:32.790Z,100985.69
2022-11-01T14:08:40.244Z,100982.47
2022-11-01T14:13:47.194Z,100977.34
2022-11-01T14:19:04.182Z,100982.84
2022-11-01T14:24:16.429Z,100996.03
2022-11-01T14:29:18.233Z,100979.72
2022-11-01T14:34:25.819Z,100988.03
2022-11-01T14:39:41.176Z,100993.00
2022-11-01T14:44:50.527Z,100982.78
2022-11-01T14:49:56.798Z,100993.84
2022-11-01T14:55:13.811Z,100993.63
2022-11-01T15:00:30.473Z,101004.38
2022-11-01T15:10:41.660Z,101008.34
2022-11-01T15:15:43.553Z,101005.09
2022-11-01T15:20:50.444Z,100997.09
2022-11-01T15:25:53.499Z,100996.03
2022-11-01T15:31:01.459Z,100989.94
2022-11-01T15:36:18.735Z,100986.97
2022-11-01T15:41:27.957Z,100981.81
2022-11-01T15:46:43.098Z,100983.53
2022-11-01T15:51:52.647Z,100981.97
2022-11-01T15:56:58.582Z,100976.63
2022-11-01T16:07:07.376Z,100988.19
2022-11-01T16:12:32.191Z,100996.66
2022-11-01T16:17:39.627Z,100990.63
2022-11-01T16:22:41.466Z,100999.34
2022-11-01T16:27:57.379Z,101003.91
2022-11-01T16:33:28.744Z,101004.69
2022-11-01T16:38:33.380Z,101003.16
2022-11-01T16:43:36.034Z,101005.25
2022-11-01T16:49:15.886Z,101018.47
2022-11-01T16:54:17.646Z,101013.19
2022-11-01T16:59:37.023Z,101019.88
2022-11-01T17:04:40.006Z,101033.03
2022-11-01T17:09:41.827Z,101034.25
2022-11-01T17:14:44.897Z,101022.63
2022-11-01T17:19:51.377Z,101033.72
2022-11-01T17:24:53.226Z,101031.84
2022-11-01T17:29:54.911Z,101020.13
2022-11-01T17:34:56.573Z,101027.19
2022-11-01T17:39:59.860Z,101017.44
2022-11-01T17:45:01.826Z,101024.31
2022-11-01T17:50:04.435Z,101022.78
2022-11-01T17:55:07.207Z,101023.38
2022-11-01T18:00:10.009Z,101021.16
2022-11-01T18:05:11.838Z,101025.44
2022-11-01T18:10:57.235Z,101017.63
2022-11-01T18:16:15.777Z,101015.66
2022-11-01T18:21:39.089Z,101010.69
2022-11-01T18:26:44.809Z,101009.72
2022-11-01T18:31:59.708Z,101010.38
2022-11-01T18:37:35.196Z,101015.16
2022-11-01T18:42:37.421Z,101004.09
2022-11-01T18:47:45.910Z,101020.31
2022-11-01T18:52:47.754Z,101012.22
2022-11-01T18:57:49.424Z,100995.50
2022-11-01T19:02:53.789Z,100995.41
2022-11-01T19:08:11.448Z,100990.63
2022-11-01T19:13:25.999Z,100998.16
2022-11-01T19:18:29.035Z,100991.00
2022-11-01T19:23:38.353Z,100991.13
2022-11-01T19:28:40.678Z,100985.50
2022-11-01T19:33:46.882Z,100985.38
2022-11-01T19:38:49.042Z,100981.56
2022-11-01T19:43:51.270Z,100989.66
2022-11-01T19:48:53.579Z,100967.16
2022-11-01T19:53:55.339Z,100978.97
2022-11-01T19:58:58.563Z,100966.19
2022-11-01T20:04:02.597Z,100973.97
2022-11-01T20:09:19.845Z,100974.22
2022-11-01T20:14:22.956Z,100964.66
2022-11-01T20:19:24.638Z,100966.09
2022-11-01T20:24:27.644Z,100960.19
2022-11-01T20:29:29.506Z,100976.13
2022-11-01T20:34:31.616Z,100962.09
2022-11-01T20:39:33.489Z,100965.34
2022-11-01T20:44:35.192Z,100967.25
2022-11-01T20:49:37.196Z,100969.84
2022-11-01T20:54:39.131Z,100960.09
2022-11-01T20:59:41.258Z,100963.13
2022-11-01T21:04:43.400Z,100966.06
2022-11-01T21:09:47.227Z,100968.22
2022-11-01T21:14:49.464Z,100963.28
2022-11-01T21:19:54.410Z,100966.97
2022-11-01T21:24:57.703Z,100974.53
2022-11-01T21:30:20.525Z,100975.06
2022-11-01T21:35:39.084Z,100962.09
2022-11-01T21:40:42.490Z,100962.31
2022-11-01T21:45:46.621Z,100950.00
2022-11-01T21:50:48.481Z,100951.81
2022-11-01T21:55:50.305Z,100946.66
2022-11-01T22:00:52.254Z,100945.31
2022-11-01T22:05:54.011Z,100934.13
2022-11-01T22:10:55.751Z,100932.31
2022-11-01T22:15:57.515Z,100932.03
2022-11-01T22:20:59.174Z,100915.03
2022-11-01T22:26:00.994Z,100922.81
2022-11-01T22:31:02.946Z,100920.69
2022-11-01T22:36:07.222Z,100920.91
2022-11-01T22:41:15.751Z,100931.97
2022-11-01T22:46:23.088Z,100926.03
2022-11-01T22:51:46.252Z,100920.50
2022-11-01T22:57:15.919Z,100918.22
2022-11-01T23:02:36.552Z,100920.88
2022-11-01T23:07:43.032Z,100914.19
2022-11-01T23:13:03.555Z,100906.78
2022-11-01T23:18:16.231Z,100907.22
2022-11-01T23:23:20.156Z,100924.31
2022-11-01T23:28:23.485Z,100920.97
2022-11-01T23:33:32.680Z,100920.59
2022-11-01T23:39:03.033Z,100921.56
2022-11-01T23:44:32.443Z,100914.41
2022-11-01T23:49:34.907Z,100908.19
2022-11-01T23:54:43.106Z,100914.56
2022-11-01T23:59:44.932Z,100907.22
